Historyczne dane pomiarowe

Dodano dane terminowe – wersja testowa.

Dane z okresu 1951-2019

Wersja bazy: 1.34 [2019-03-16, lista zmian], aktualizacja planowana na 2019-04-15

Dane meteo z obszaru Polski uzyskane na podstawie danych udostępnionych przez Instytut Meteorologii i Gospodarki Wodnej – Państwowy Instytut Badawczy.

 

Wybierz Datę:    

       

TemperaturaWilgotnośćWiatrCiśnienieOpadyŚniegCzas trwania zjawisk
 Stacja t tx tn tng RH VA  wxwx mslp ppp RRR   cm mm wxwxwxwxwxwxwx
2019-07-03 13.5 17.2 10.7 9.7-- 6.3----- 0.2------------
2019-07-02 16.6 21.5 13.6 11.6-- 6.0----- 4.0------------
2019-07-01 21.1 28.0 16.0 16.0-- 4.3----- 1.8------------
2019-06-30 22.8 29.2 13.8 10.9-- 0.3----- 0.0------------
2019-06-29 17.1 22.7 8.8 7.8-- 4.0----- 0.0------------
2019-06-28 15.7 19.9 10.9 9.9-- 3.0----- 0.0------------
2019-06-27 20.6 29.0 16.5 16.4-- 5.3----- 1.2------------
2019-06-26 25.0 32.3 17.4 15.3-- 5.0----- 15.0------------
2019-06-25 22.9 28.2 15.4 12.4-- 3.3----- 0.0------------
2019-06-24 20.5 25.7 13.4 11.2-- 0.7----- 0.0------------
2019-06-23 18.4 24.0 10.0 9.0-- 0.7----- 0.0------------
2019-06-22 18.0 21.7 15.2 15.1-- 6.7----- 0.0------------
2019-06-21 20.6 25.9 17.6 17.0-- 7.3----- 4.9------------
2019-06-20 23.5 29.2 17.6 14.9-- 3.3----- 0.0------------
2019-06-19 22.1 28.0 14.9 12.6-- 4.0----- 0.0------------
2019-06-18 19.2 24.7 11.6 8.8-- 1.0----- 0.0------------
2019-06-17 18.3 23.2 14.9 15.6-- 5.3----- 0.0------------
2019-06-16 19.7 25.9 16.2 16.4-- 7.7----- 0.0------------
2019-06-15 22.3 28.2 14.9 13.8-- 1.7----- 23.5------------
2019-06-14 21.8 26.3 16.8 16.8-- 4.7----- 0.0------------
2019-06-13 24.0 31.9 19.7 18.7-- 2.7----- 6.7------------
2019-06-12 26.7 32.3 18.8 16.0-- 1.0----- 0.0------------
2019-06-11 25.6 31.7 18.7 17.7-- 1.0----- 0.0------------
2019-06-10 20.8 27.2 12.4 9.8-- 2.7----- 0.0------------
2019-06-09 19.0 23.4 12.8 11.7-- 0.7----- 0.0------------
2019-06-08 21.6 28.7 15.9 15.5-- 3.7----- 1.2------------
2019-06-07 21.6 27.2 17.4 16.1-- 3.3----- 0.0------------
2019-06-06 22.5 27.7 17.8 16.7-- 3.0----- 0.6------------
2019-06-05 23.3 30.2 15.9 13.6-- 1.0----- 0.0------------
2019-06-04 21.7 27.2 13.8 9.3-- 0.0----- 0.0------------
2019-06-03 17.6 24.5 9.0 6.4-- 0.0----- 0.0------------
2019-06-02 17.3 20.7 12.8 11.8-- 1.0----- 0.0------------
2019-06-01 16.8 21.3 12.8 12.5-- 3.3----- 0.0------------
2019-05-31 15.6 21.8 6.7 4.9-- 5.0----- 0.9------------
2019-05-30 13.0 18.3 5.4 2.7-- 0.0----- 0.0------------
2019-05-29 12.3 17.9 10.0 9.3-- 5.7----- 5.5------------
2019-05-28 17.0 23.7 12.4 10.0-- 7.0----- 10.9------------
2019-05-27 17.2 23.7 12.8 9.2-- 7.7----- 1.9------------
2019-05-26 12.7 16.8 6.9 5.7-- 8.0----- 0.0------------
2019-05-25 15.7 25.2 8.8 4.7-- 2.0----- 0.0------------
2019-05-24 14.0 18.4 10.5 9.3-- 6.0----- 0.0------------
2019-05-23 17.0 23.2 11.4 7.6-- 4.0----- 4.6------------
2019-05-22 17.1 21.8 12.6 11.5-- 2.0----- 0.0------------
2019-05-21 19.5 24.2 14.0 12.6-- 6.3----- 6.0------------
2019-05-20 20.8 25.7 14.9 13.9-- 4.7----- 3.6------------
2019-05-19 18.9 24.7 14.3 11.3-- 4.7----- 3.4------------
2019-05-18 17.8 22.4 13.8 10.8-- 8.0----- 17.8------------
2019-05-17 15.4 18.8 12.4 10.7-- 8.0----- 0.1------------
2019-05-16 13.6 15.5 12.2 8.3-- 8.0----- 5.7------------
2019-05-15 11.3 14.3 7.6 6.5-- 8.0----- 12.9------------
2019-05-14 7.2 9.3 4.9 4.4-- 8.0----- 0.1------------
2019-05-13 9.5 15.5 6.9 5.3-- 8.0----- 4.0------------
2019-05-12 12.6 19.0 6.4 4.2-- 5.7----- 0.4------------
2019-05-11 12.1 18.0 8.5 5.2-- 6.3----- 0.0------------
2019-05-10 11.0 14.7 5.9 2.7-- 7.0----- 1.1------------
2019-05-09 11.0 16.8 2.9 -0.2-- 1.0----- 0.0------------
2019-05-08 7.5 13.6 -0.4 -5.0-- 2.0----- 0.0------------
2019-05-07 8.4 12.9 4.1 3.7-- 1.7----- 0.0------------
2019-05-06 8.0 13.4 0.7 -2.2-- 3.7----- 0.0------------
2019-05-05 6.0 11.3 1.8 1.0-- 5.7----- 0.0------------
121.6 ms

 

Źródłem pochodzenia danych jest Instytut Meteorologii i Gospodarki Wodnej – Państwowy Instytut Badawczy. Dane Instytutu Meteorologii i Gospodarki Wodnej – Państwowego Instytutu Badawczego zostały przetworzone.

Dane źródłowe można odnaleźć na stronie https://dane.imgw.pl